sensor_id;sensor_type;location;lat;lon;timestamp;pressure;altitude;pressure_sealevel;temperature;humidity
27958;BME280;15295;42.658;23.374;2023-03-23T00:01:00;94557.13;;;12.22;59.59
27958;BME280;15295;42.658;23.374;2023-03-23T00:03:27;94570.84;;;12.19;59.86
27958;BME280;15295;42.658;23.374;2023-03-23T00:05:55;94572.78;;;12.22;59.92
27958;BME280;15295;42.658;23.374;2023-03-23T00:08:33;94572.06;;;12.18;60.10
27958;BME280;15295;42.658;23.374;2023-03-23T00:10:59;94569.72;;;12.16;60.16
27958;BME280;15295;42.658;23.374;2023-03-23T00:13:29;94563.06;;;12.17;59.99
27958;BME280;15295;42.658;23.374;2023-03-23T00:15:57;94568.16;;;12.15;59.90
27958;BME280;15295;42.658;23.374;2023-03-23T00:18:23;94565.41;;;12.15;59.85
27958;BME280;15295;42.658;23.374;2023-03-23T00:20:53;94575.53;;;12.22;59.68
27958;BME280;15295;42.658;23.374;2023-03-23T00:23:22;94558.78;;;12.13;59.71
27958;BME280;15295;42.658;23.374;2023-03-23T00:25:50;94579.84;;;12.23;59.65
27958;BME280;15295;42.658;23.374;2023-03-23T00:28:19;94581.81;;;12.19;59.96
27958;BME280;15295;42.658;23.374;2023-03-23T00:31:01;94584.94;;;12.21;59.87
27958;BME280;15295;42.658;23.374;2023-03-23T00:33:30;94586.91;;;12.20;59.97
27958;BME280;15295;42.658;23.374;2023-03-23T00:35:59;94579.13;;;12.15;59.85
27958;BME280;15295;42.658;23.374;2023-03-23T00:38:25;94583.06;;;12.14;59.53
27958;BME280;15295;42.658;23.374;2023-03-23T00:40:52;94579.56;;;12.10;59.97
27958;BME280;15295;42.658;23.374;2023-03-23T00:43:19;94595.19;;;12.13;59.81
27958;BME280;15295;42.658;23.374;2023-03-23T00:45:45;94580.00;;;12.05;60.18
27958;BME280;15295;42.658;23.374;2023-03-23T00:48:22;94595.56;;;12.15;60.21
27958;BME280;15295;42.658;23.374;2023-03-23T00:50:48;94591.66;;;12.16;60.28
27958;BME280;15295;42.658;23.374;2023-03-23T00:53:43;94594.66;;;12.25;59.91
27958;BME280;15295;42.658;23.374;2023-03-23T00:56:08;94597.81;;;12.24;59.79
27958;BME280;15295;42.658;23.374;2023-03-23T00:58:34;94595.81;;;12.28;59.44
27958;BME280;15295;42.658;23.374;2023-03-23T01:01:00;94604.81;;;12.28;59.19
27958;BME280;15295;42.658;23.374;2023-03-23T01:03:25;94601.72;;;12.26;58.71
27958;BME280;15295;42.658;23.374;2023-03-23T01:05:52;94603.25;;;12.27;58.90
27958;BME280;15295;42.658;23.374;2023-03-23T01:08:19;94583.44;;;12.16;58.85
27958;BME280;15295;42.658;23.374;2023-03-23T01:10:45;94598.97;;;12.26;58.70
27958;BME280;15295;42.658;23.374;2023-03-23T01:13:12;94595.88;;;12.24;58.46
27958;BME280;15295;42.658;23.374;2023-03-23T01:15:38;94599.41;;;12.21;58.34
27958;BME280;15295;42.658;23.374;2023-03-23T01:18:04;94597.56;;;12.11;57.81
27958;BME280;15295;42.658;23.374;2023-03-23T01:20:32;94587.03;;;12.06;57.85
27958;BME280;15295;42.658;23.374;2023-03-23T01:22:58;94582.34;;;12.07;57.72
27958;BME280;15295;42.658;23.374;2023-03-23T01:25:32;94591.72;;;12.09;57.35
27958;BME280;15295;42.658;23.374;2023-03-23T01:28:00;94589.41;;;12.04;57.47
27958;BME280;15295;42.658;23.374;2023-03-23T01:30:26;94586.28;;;12.02;57.49
27958;BME280;15295;42.658;23.374;2023-03-23T01:32:58;94574.59;;;11.98;57.65
27958;BME280;15295;42.658;23.374;2023-03-23T01:35:23;94561.34;;;11.93;57.38
27958;BME280;15295;42.658;23.374;2023-03-23T01:37:49;94575.72;;;12.04;57.10
27958;BME280;15295;42.658;23.374;2023-03-23T01:40:14;94573.84;;;11.94;57.12
27958;BME280;15295;42.658;23.374;2023-03-23T01:42:41;94572.22;;;12.00;57.02
27958;BME280;15295;42.658;23.374;2023-03-23T01:45:32;94572.75;;;11.85;57.85
27958;BME280;15295;42.658;23.374;2023-03-23T01:48:14;94568.47;;;11.84;58.42
27958;BME280;15295;42.658;23.374;2023-03-23T01:53:25;94559.44;;;11.90;59.06
27958;BME280;15295;42.658;23.374;2023-03-23T01:55:53;94548.50;;;11.87;59.19
27958;BME280;15295;42.658;23.374;2023-03-23T01:58:25;94563.28;;;11.96;59.22
27958;BME280;15295;42.658;23.374;2023-03-23T02:00:54;94559.72;;;11.99;59.23
27958;BME280;15295;42.658;23.374;2023-03-23T02:03:21;94560.44;;;12.07;59.31
27958;BME280;15295;42.658;23.374;2023-03-23T02:05:49;94544.06;;;12.00;59.18
27958;BME280;15295;42.658;23.374;2023-03-23T02:08:16;94540.59;;;11.96;59.06
27958;BME280;15295;42.658;23.374;2023-03-23T02:10:43;94551.78;;;12.08;58.86
27958;BME280;15295;42.658;23.374;2023-03-23T02:13:10;94563.47;;;12.16;58.67
27958;BME280;15295;42.658;23.374;2023-03-23T02:18:37;94564.56;;;12.22;58.74
27958;BME280;15295;42.658;23.374;2023-03-23T02:27:08;94566.03;;;12.30;58.12
27958;BME280;15295;42.658;23.374;2023-03-23T02:32:35;94557.81;;;12.30;57.55
27958;BME280;15295;42.658;23.374;2023-03-23T02:35:12;94563.28;;;12.33;57.52
27958;BME280;15295;42.658;23.374;2023-03-23T02:37:48;94568.31;;;12.38;57.48
27958;BME280;15295;42.658;23.374;2023-03-23T02:40:20;94570.66;;;12.40;57.27
27958;BME280;15295;42.658;23.374;2023-03-23T02:42:51;94573.78;;;12.38;57.14
27958;BME280;15295;42.658;23.374;2023-03-23T02:45:33;94573.47;;;12.33;57.22
27958;BME280;15295;42.658;23.374;2023-03-23T02:48:02;94579.72;;;12.33;57.12
27958;BME280;15295;42.658;23.374;2023-03-23T02:50:31;94580.56;;;12.27;57.11
27958;BME280;15295;42.658;23.374;2023-03-23T02:52:58;94569.38;;;12.14;57.01
27958;BME280;15295;42.658;23.374;2023-03-23T02:55:41;94581.56;;;12.06;57.07
27958;BME280;15295;42.658;23.374;2023-03-23T02:58:33;94557.53;;;11.84;56.97
27958;BME280;15295;42.658;23.374;2023-03-23T03:04:06;94600.56;;;11.83;57.13
27958;BME280;15295;42.658;23.374;2023-03-23T03:06:44;94598.25;;;11.78;57.05
27958;BME280;15295;42.658;23.374;2023-03-23T03:12:08;94598.44;;;11.50;57.61
27958;BME280;15295;42.658;23.374;2023-03-23T03:17:50;94610.94;;;11.51;57.71
27958;BME280;15295;42.658;23.374;2023-03-23T03:20:18;94612.50;;;11.52;57.58
27958;BME280;15295;42.658;23.374;2023-03-23T03:22:45;94620.31;;;11.53;57.99
27958;BME280;15295;42.658;23.374;2023-03-23T03:25:31;94617.97;;;11.52;57.84
27958;BME280;15295;42.658;23.374;2023-03-23T03:27:57;94617.22;;;11.48;58.07
27958;BME280;15295;42.658;23.374;2023-03-23T03:30:27;94603.19;;;11.42;57.81
27958;BME280;15295;42.658;23.374;2023-03-23T03:32:56;94609.44;;;11.43;58.13
27958;BME280;15295;42.658;23.374;2023-03-23T03:35:42;94611.44;;;11.39;58.04
27958;BME280;15295;42.658;23.374;2023-03-23T03:38:09;94621.63;;;11.31;58.12
27958;BME280;15295;42.658;23.374;2023-03-23T03:40:35;94606.16;;;11.07;58.18
27958;BME280;15295;42.658;23.374;2023-03-23T03:43:01;94619.00;;;11.10;57.78
27958;BME280;15295;42.658;23.374;2023-03-23T03:45:27;94608.53;;;10.98;57.59
27958;BME280;15295;42.658;23.374;2023-03-23T03:47:52;94608.94;;;10.97;57.68
27958;BME280;15295;42.658;23.374;2023-03-23T03:50:18;94591.03;;;10.85;57.64
27958;BME280;15295;42.658;23.374;2023-03-23T03:52:50;94616.72;;;11.02;57.71
27958;BME280;15295;42.658;23.374;2023-03-23T03:55:19;94620.59;;;11.08;57.94
27958;BME280;15295;42.658;23.374;2023-03-23T03:57:44;94603.41;;;11.07;58.00
27958;BME280;15295;42.658;23.374;2023-03-23T04:00:10;94608.06;;;11.10;57.95
27958;BME280;15295;42.658;23.374;2023-03-23T04:02:41;94607.25;;;11.17;57.65
27958;BME280;15295;42.658;23.374;2023-03-23T04:05:07;94609.63;;;11.15;57.55
27958;BME280;15295;42.658;23.374;2023-03-23T04:07:34;94608.78;;;11.21;57.35
27958;BME280;15295;42.658;23.374;2023-03-23T04:10:06;94597.50;;;11.16;57.36
27958;BME280;15295;42.658;23.374;2023-03-23T04:12:32;94602.19;;;11.15;57.24
27958;BME280;15295;42.658;23.374;2023-03-23T04:15:04;94608.75;;;11.28;57.35
27958;BME280;15295;42.658;23.374;2023-03-23T04:17:30;94599.03;;;11.24;57.19
27958;BME280;15295;42.658;23.374;2023-03-23T04:19:56;94598.63;;;11.22;57.23
27958;BME280;15295;42.658;23.374;2023-03-23T04:22:26;94614.56;;;11.34;56.93
27958;BME280;15295;42.658;23.374;2023-03-23T04:24:58;94615.78;;;11.33;56.75
27958;BME280;15295;42.658;23.374;2023-03-23T04:27:26;94611.09;;;11.30;56.79
27958;BME280;15295;42.658;23.374;2023-03-23T04:29:54;94605.66;;;11.23;56.79
27958;BME280;15295;42.658;23.374;2023-03-23T04:32:20;94610.75;;;11.21;57.40
27958;BME280;15295;42.658;23.374;2023-03-23T04:34:46;94616.97;;;11.28;57.43
27958;BME280;15295;42.658;23.374;2023-03-23T04:37:11;94601.72;;;11.31;57.30
27958;BME280;15295;42.658;23.374;2023-03-23T04:39:38;94595.88;;;11.25;57.35
27958;BME280;15295;42.658;23.374;2023-03-23T04:42:05;94593.50;;;11.31;57.26
27958;BME280;15295;42.658;23.374;2023-03-23T04:44:31;94611.81;;;11.41;57.30
27958;BME280;15295;42.658;23.374;2023-03-23T04:47:07;94617.28;;;11.41;57.37
27958;BME280;15295;42.658;23.374;2023-03-23T04:49:34;94622.00;;;11.37;57.31
27958;BME280;15295;42.658;23.374;2023-03-23T04:52:00;94618.44;;;11.40;57.20
27958;BME280;15295;42.658;23.374;2023-03-23T04:54:26;94614.16;;;11.39;57.32
27958;BME280;15295;42.658;23.374;2023-03-23T04:57:36;94631.28;;;11.50;57.23
27958;BME280;15295;42.658;23.374;2023-03-23T05:00:04;94634.34;;;11.59;57.39
27958;BME280;15295;42.658;23.374;2023-03-23T05:02:37;94634.75;;;11.61;57.28
27958;BME280;15295;42.658;23.374;2023-03-23T05:05:07;94628.88;;;11.59;57.29
27958;BME280;15295;42.658;23.374;2023-03-23T05:07:38;94629.63;;;11.63;57.23
27958;BME280;15295;42.658;23.374;2023-03-23T05:10:04;94633.53;;;11.69;57.50
27958;BME280;15295;42.658;23.374;2023-03-23T05:12:33;94636.59;;;11.75;57.41
27958;BME280;15295;42.658;23.374;2023-03-23T05:15:02;94640.47;;;11.81;57.29
27958;BME280;15295;42.658;23.374;2023-03-23T05:17:28;94644.34;;;11.83;57.09
27958;BME280;15295;42.658;23.374;2023-03-23T05:19:55;94642.03;;;11.82;57.34
27958;BME280;15295;42.658;23.374;2023-03-23T05:22:22;94646.25;;;11.90;57.15
27958;BME280;15295;42.658;23.374;2023-03-23T05:27:27;94649.50;;;11.78;57.33
27958;BME280;15295;42.658;23.374;2023-03-23T05:29:57;94626.06;;;11.73;57.21
27958;BME280;15295;42.658;23.374;2023-03-23T05:32:40;94634.97;;;11.84;57.24
27958;BME280;15295;42.658;23.374;2023-03-23T05:35:26;94611.66;;;11.62;57.07
27958;BME280;15295;42.658;23.374;2023-03-23T05:37:59;94613.97;;;11.71;56.93
27958;BME280;15295;42.658;23.374;2023-03-23T05:40:50;94668.81;;;12.08;56.88
27958;BME280;15295;42.658;23.374;2023-03-23T05:43:20;94643.56;;;11.86;56.83
27958;BME280;15295;42.658;23.374;2023-03-23T05:45:46;94671.56;;;12.04;56.72
27958;BME280;15295;42.658;23.374;2023-03-23T05:48:19;94674.59;;;12.17;56.46
27958;BME280;15295;42.658;23.374;2023-03-23T05:50:47;94646.53;;;12.06;56.50
27958;BME280;15295;42.658;23.374;2023-03-23T05:53:12;94682.34;;;12.25;56.56
27958;BME280;15295;42.658;23.374;2023-03-23T05:55:38;94681.53;;;12.28;56.76
27958;BME280;15295;42.658;23.374;2023-03-23T05:58:05;94675.19;;;12.38;56.93
27958;BME280;15295;42.658;23.374;2023-03-23T06:00:31;94677.13;;;12.42;57.09
27958;BME280;15295;42.658;23.374;2023-03-23T06:02:58;94680.53;;;12.53;56.92
27958;BME280;15295;42.658;23.374;2023-03-23T06:05:23;94681.69;;;12.55;56.89
27958;BME280;15295;42.658;23.374;2023-03-23T06:07:51;94676.22;;;12.55;56.66
27958;BME280;15295;42.658;23.374;2023-03-23T06:10:17;94681.53;;;12.69;56.21
27958;BME280;15295;42.658;23.374;2023-03-23T06:12:43;94690.56;;;12.70;56.12
27958;BME280;15295;42.658;23.374;2023-03-23T06:15:09;94691.31;;;12.70;56.48
27958;BME280;15295;42.658;23.374;2023-03-23T06:17:38;94691.66;;;12.76;56.28
27958;BME280;15295;42.658;23.374;2023-03-23T06:20:04;94697.06;;;12.83;56.06
27958;BME280;15295;42.658;23.374;2023-03-23T06:22:39;94698.91;;;12.93;56.12
27958;BME280;15295;42.658;23.374;2023-03-23T06:25:09;94691.72;;;13.02;56.14
27958;BME280;15295;42.658;23.374;2023-03-23T06:27:37;94683.41;;;13.13;55.71
27958;BME280;15295;42.658;23.374;2023-03-23T06:30:04;94691.59;;;13.17;55.95
27958;BME280;15295;42.658;23.374;2023-03-23T06:32:30;94682.22;;;13.14;55.74
27958;BME280;15295;42.658;23.374;2023-03-23T06:34:57;94690.00;;;13.19;55.79
27958;BME280;15295;42.658;23.374;2023-03-23T06:37:23;94679.66;;;13.30;55.20
27958;BME280;15295;42.658;23.374;2023-03-23T06:39:49;94691.94;;;13.52;55.16
27958;BME280;15295;42.658;23.374;2023-03-23T06:42:15;94692.56;;;13.63;54.92
27958;BME280;15295;42.658;23.374;2023-03-23T06:44:40;94694.19;;;13.87;55.18
27958;BME280;15295;42.658;23.374;2023-03-23T06:47:06;94702.88;;;14.09;54.29
27958;BME280;15295;42.658;23.374;2023-03-23T06:49:33;94700.88;;;14.59;56.75
27958;BME280;15295;42.658;23.374;2023-03-23T06:51:58;94700.13;;;14.79;54.79
27958;BME280;15295;42.658;23.374;2023-03-23T06:54:26;94707.00;;;15.10;53.64
27958;BME280;15295;42.658;23.374;2023-03-23T06:56:52;94703.44;;;15.32;52.14
27958;BME280;15295;42.658;23.374;2023-03-23T06:59:17;94704.06;;;15.60;51.55
27958;BME280;15295;42.658;23.374;2023-03-23T07:01:43;94696.91;;;15.82;50.53
27958;BME280;15295;42.658;23.374;2023-03-23T07:04:14;94708.03;;;16.10;49.80
27958;BME280;15295;42.658;23.374;2023-03-23T07:06:41;94693.00;;;16.31;49.12
27958;BME280;15295;42.658;23.374;2023-03-23T07:09:08;94711.09;;;16.48;48.40
27958;BME280;15295;42.658;23.374;2023-03-23T07:11:34;94714.53;;;16.68;47.48
27958;BME280;15295;42.658;23.374;2023-03-23T07:14:02;94689.91;;;16.61;47.14
27958;BME280;15295;42.658;23.374;2023-03-23T07:16:27;94710.53;;;16.85;46.65
27958;BME280;15295;42.658;23.374;2023-03-23T07:18:54;94712.75;;;17.07;46.55
27958;BME280;15295;42.658;23.374;2023-03-23T07:21:20;94707.06;;;17.26;45.89
27958;BME280;15295;42.658;23.374;2023-03-23T07:23:45;94710.13;;;17.44;45.52
27958;BME280;15295;42.658;23.374;2023-03-23T07:26:11;94713.09;;;17.66;45.02
27958;BME280;15295;42.658;23.374;2023-03-23T07:28:43;94705.59;;;17.79;44.52
27958;BME280;15295;42.658;23.374;2023-03-23T07:31:14;94695.56;;;17.98;44.69
27958;BME280;15295;42.658;23.374;2023-03-23T07:33:52;94660.59;;;18.04;44.14
27958;BME280;15295;42.658;23.374;2023-03-23T07:36:17;94686.56;;;18.31;43.26
27958;BME280;15295;42.658;23.374;2023-03-23T07:38:43;94718.13;;;18.59;42.99
27958;BME280;15295;42.658;23.374;2023-03-23T07:41:09;94690.88;;;18.58;42.68
27958;BME280;15295;42.658;23.374;2023-03-23T07:43:34;94722.59;;;18.91;42.43
27958;BME280;15295;42.658;23.374;2023-03-23T07:45:59;94708.06;;;18.99;41.33
27958;BME280;15295;42.658;23.374;2023-03-23T07:48:29;94705.56;;;19.14;40.90
27958;BME280;15295;42.658;23.374;2023-03-23T07:50:56;94734.09;;;19.36;40.19
27958;BME280;15295;42.658;23.374;2023-03-23T07:53:23;94722.03;;;19.30;40.60
27958;BME280;15295;42.658;23.374;2023-03-23T07:55:52;94727.94;;;19.54;40.43
27958;BME280;15295;42.658;23.374;2023-03-23T07:58:29;94730.78;;;19.63;39.90
27958;BME280;15295;42.658;23.374;2023-03-23T08:01:10;94718.06;;;19.53;39.69
27958;BME280;15295;42.658;23.374;2023-03-23T08:08:47;94732.38;;;19.94;39.61
27958;BME280;15295;42.658;23.374;2023-03-23T08:13:47;94738.41;;;20.24;38.77
27958;BME280;15295;42.658;23.374;2023-03-23T08:16:13;94708.84;;;20.08;38.56
27958;BME280;15295;42.658;23.374;2023-03-23T08:19:00;94713.94;;;20.31;38.33
27958;BME280;15295;42.658;23.374;2023-03-23T08:21:38;94740.09;;;20.61;37.83
27958;BME280;15295;42.658;23.374;2023-03-23T08:24:07;94725.38;;;20.91;37.70
27958;BME280;15295;42.658;23.374;2023-03-23T08:26:33;94727.78;;;21.38;37.55
27958;BME280;15295;42.658;23.374;2023-03-23T08:29:05;94719.22;;;21.78;36.40
27958;BME280;15295;42.658;23.374;2023-03-23T08:31:31;94741.31;;;22.17;37.01
27958;BME280;15295;42.658;23.374;2023-03-23T08:33:58;94739.25;;;22.27;35.09
27958;BME280;15295;42.658;23.374;2023-03-23T08:36:23;94740.16;;;22.33;34.52
27958;BME280;15295;42.658;23.374;2023-03-23T08:38:49;94729.50;;;22.32;34.01
27958;BME280;15295;42.658;23.374;2023-03-23T08:41:17;94743.78;;;22.66;33.41
27958;BME280;15295;42.658;23.374;2023-03-23T08:43:42;94727.66;;;22.70;32.52
27958;BME280;15295;42.658;23.374;2023-03-23T08:46:09;94729.72;;;22.93;31.51
27958;BME280;15295;42.658;23.374;2023-03-23T08:48:36;94737.59;;;23.19;31.22
27958;BME280;15295;42.658;23.374;2023-03-23T08:51:07;94738.13;;;23.32;29.91
27958;BME280;15295;42.658;23.374;2023-03-23T08:53:33;94686.72;;;23.09;30.11
27958;BME280;15295;42.658;23.374;2023-03-23T08:56:07;94716.72;;;23.38;30.37
27958;BME280;15295;42.658;23.374;2023-03-23T08:58:36;94706.50;;;23.58;30.21
27958;BME280;15295;42.658;23.374;2023-03-23T09:01:11;94720.69;;;23.84;28.99
27958;BME280;15295;42.658;23.374;2023-03-23T09:03:37;94726.84;;;23.88;28.10
27958;BME280;15295;42.658;23.374;2023-03-23T09:06:09;94742.94;;;23.55;26.55
27958;BME280;15295;42.658;23.374;2023-03-23T09:08:38;94739.06;;;23.52;27.75
27958;BME280;15295;42.658;23.374;2023-03-23T09:11:07;94741.25;;;23.34;26.73
27958;BME280;15295;42.658;23.374;2023-03-23T09:13:37;94729.59;;;23.12;27.13
27958;BME280;15295;42.658;23.374;2023-03-23T09:16:04;94742.50;;;23.33;27.85
27958;BME280;15295;42.658;23.374;2023-03-23T09:18:30;94738.25;;;23.14;27.92
27958;BME280;15295;42.658;23.374;2023-03-23T09:20:59;94728.38;;;22.80;28.62
27958;BME280;15295;42.658;23.374;2023-03-23T09:23:25;94742.09;;;22.60;29.04
27958;BME280;15295;42.658;23.374;2023-03-23T09:25:51;94723.53;;;22.48;29.31
27958;BME280;15295;42.658;23.374;2023-03-23T09:28:17;94720.44;;;22.55;29.58
27958;BME280;15295;42.658;23.374;2023-03-23T09:30:42;94734.75;;;22.71;29.37
27958;BME280;15295;42.658;23.374;2023-03-23T09:33:09;94729.72;;;22.93;29.42
27958;BME280;15295;42.658;23.374;2023-03-23T09:35:35;94720.47;;;22.87;29.14
27958;BME280;15295;42.658;23.374;2023-03-23T09:38:04;94729.06;;;22.66;29.71
27958;BME280;15295;42.658;23.374;2023-03-23T09:46:41;94712.91;;;21.86;29.73
27958;BME280;15295;42.658;23.374;2023-03-23T09:49:12;94702.09;;;21.88;29.44
27958;BME280;15295;42.658;23.374;2023-03-23T09:51:55;94700.38;;;21.91;29.79
27958;BME280;15295;42.658;23.374;2023-03-23T09:56:53;94712.97;;;22.28;29.57
27958;BME280;15295;42.658;23.374;2023-03-23T10:01:51;94713.31;;;22.54;29.14
27958;BME280;15295;42.658;23.374;2023-03-23T10:04:32;94707.56;;;22.66;28.45
27958;BME280;15295;42.658;23.374;2023-03-23T10:07:21;94708.00;;;22.32;28.46
27958;BME280;15295;42.658;23.374;2023-03-23T10:09:51;94709.00;;;22.53;28.01
27958;BME280;15295;42.658;23.374;2023-03-23T10:25:52;94705.22;;;22.97;27.66
27958;BME280;15295;42.658;23.374;2023-03-23T10:28:32;94698.41;;;22.98;27.57
27958;BME280;15295;42.658;23.374;2023-03-23T10:31:00;94692.41;;;22.91;27.89
27958;BME280;15295;42.658;23.374;2023-03-23T10:33:50;94688.38;;;23.16;27.36
27958;BME280;15295;42.658;23.374;2023-03-23T10:36:27;94689.91;;;23.17;26.97
27958;BME280;15295;42.658;23.374;2023-03-23T10:39:18;94693.19;;;23.39;26.83
27958;BME280;15295;42.658;23.374;2023-03-23T10:42:08;94695.94;;;23.77;26.83
27958;BME280;15295;42.658;23.374;2023-03-23T10:44:34;94690.16;;;23.81;26.88
27958;BME280;15295;42.658;23.374;2023-03-23T10:47:01;94689.84;;;23.64;27.09
27958;BME280;15295;42.658;23.374;2023-03-23T10:49:48;94698.16;;;23.73;26.84
27958;BME280;15295;42.658;23.374;2023-03-23T10:52:37;94687.94;;;23.85;26.97
27958;BME280;15295;42.658;23.374;2023-03-23T10:55:17;94695.94;;;23.77;27.29
27958;BME280;15295;42.658;23.374;2023-03-23T10:57:46;94687.56;;;23.92;26.68
27958;BME280;15295;42.658;23.374;2023-03-23T11:03:00;94681.03;;;24.38;26.21
27958;BME280;15295;42.658;23.374;2023-03-23T11:05:34;94675.28;;;24.77;25.73
27958;BME280;15295;42.658;23.374;2023-03-23T11:08:01;94683.72;;;25.17;25.48
27958;BME280;15295;42.658;23.374;2023-03-23T11:10:39;94686.34;;;25.26;25.08
27958;BME280;15295;42.658;23.374;2023-03-23T11:13:13;94681.13;;;25.34;24.43
27958;BME280;15295;42.658;23.374;2023-03-23T11:15:41;94679.38;;;25.36;24.29
27958;BME280;15295;42.658;23.374;2023-03-23T11:20:59;94664.41;;;24.99;25.21
27958;BME280;15295;42.658;23.374;2023-03-23T11:23:28;94654.78;;;25.00;25.16
27958;BME280;15295;42.658;23.374;2023-03-23T11:29:18;94654.13;;;25.31;25.15
27958;BME280;15295;42.658;23.374;2023-03-23T11:31:53;94650.69;;;25.41;25.03
27958;BME280;15295;42.658;23.374;2023-03-23T11:34:33;94645.66;;;25.45;24.47
27958;BME280;15295;42.658;23.374;2023-03-23T11:37:07;94646.06;;;25.58;24.50
27958;BME280;15295;42.658;23.374;2023-03-23T11:39:55;94649.41;;;25.88;24.70
27958;BME280;15295;42.658;23.374;2023-03-23T11:42:34;94632.84;;;25.84;24.22
27958;BME280;15295;42.658;23.374;2023-03-23T11:45:33;94640.63;;;25.49;24.35
27958;BME280;15295;42.658;23.374;2023-03-23T11:50:52;94633.34;;;25.37;25.12
27958;BME280;15295;42.658;23.374;2023-03-23T11:53:30;94629.22;;;25.53;24.34
27958;BME280;15295;42.658;23.374;2023-03-23T11:58:29;94627.53;;;25.41;24.50
27958;BME280;15295;42.658;23.374;2023-03-23T12:06:09;94610.78;;;25.66;24.91
27958;BME280;15295;42.658;23.374;2023-03-23T12:08:56;94608.81;;;25.72;24.27
27958;BME280;15295;42.658;23.374;2023-03-23T12:11:52;94615.38;;;25.44;24.38
27958;BME280;15295;42.658;23.374;2023-03-23T12:14:49;94616.66;;;25.22;24.48
27958;BME280;15295;42.658;23.374;2023-03-23T12:21:00;94616.31;;;25.41;24.57
27958;BME280;15295;42.658;23.374;2023-03-23T12:25:43;94598.22;;;25.10;24.81
27958;BME280;15295;42.658;23.374;2023-03-23T12:34:06;94609.72;;;25.38;24.03
27958;BME280;15295;42.658;23.374;2023-03-23T12:47:40;94601.44;;;25.49;24.56
27958;BME280;15295;42.658;23.374;2023-03-23T12:50:25;94589.28;;;25.52;24.38
27958;BME280;15295;42.658;23.374;2023-03-23T12:53:09;94593.00;;;25.23;24.41
27958;BME280;15295;42.658;23.374;2023-03-23T12:58:44;94590.31;;;24.89;25.31
27958;BME280;15295;42.658;23.374;2023-03-23T13:01:14;94591.28;;;24.66;25.19
27958;BME280;15295;42.658;23.374;2023-03-23T13:04:11;94596.56;;;24.64;25.51
27958;BME280;15295;42.658;23.374;2023-03-23T13:12:01;94582.03;;;24.60;25.72
27958;BME280;15295;42.658;23.374;2023-03-23T13:14:56;94586.09;;;24.59;25.42
27958;BME280;15295;42.658;23.374;2023-03-23T13:17:37;94575.44;;;24.42;25.86
27958;BME280;15295;42.658;23.374;2023-03-23T13:23:18;94572.53;;;24.72;25.99
27958;BME280;15295;42.658;23.374;2023-03-23T13:26:00;94561.22;;;24.81;26.03
27958;BME280;15295;42.658;23.374;2023-03-23T13:28:29;94559.56;;;24.89;25.80
27958;BME280;15295;42.658;23.374;2023-03-23T13:31:16;94567.44;;;25.10;25.53
27958;BME280;15295;42.658;23.374;2023-03-23T13:33:53;94574.25;;;25.04;25.40
27958;BME280;15295;42.658;23.374;2023-03-23T13:36:40;94570.41;;;24.81;25.09
27958;BME280;15295;42.658;23.374;2023-03-23T13:39:23;94532.69;;;24.36;25.63
27958;BME280;15295;42.658;23.374;2023-03-23T13:49:56;94558.13;;;23.89;26.24
27958;BME280;15295;42.658;23.374;2023-03-23T14:05:42;94547.44;;;23.88;26.86
27958;BME280;15295;42.658;23.374;2023-03-23T14:13:09;94535.03;;;23.74;27.04
27958;BME280;15295;42.658;23.374;2023-03-23T14:15:45;94523.53;;;23.52;26.85
27958;BME280;15295;42.658;23.374;2023-03-23T14:18:21;94531.28;;;23.19;27.17
27958;BME280;15295;42.658;23.374;2023-03-23T14:20:48;94528.31;;;23.22;27.42
27958;BME280;15295;42.658;23.374;2023-03-23T14:23:18;94526.25;;;22.93;28.12
27958;BME280;15295;42.658;23.374;2023-03-23T14:25:45;94511.25;;;22.91;28.12
27958;BME280;15295;42.658;23.374;2023-03-23T14:28:20;94528.78;;;23.06;28.00
27958;BME280;15295;42.658;23.374;2023-03-23T14:30:48;94527.72;;;23.03;27.96
27958;BME280;15295;42.658;23.374;2023-03-23T14:33:18;94533.16;;;22.83;28.30
27958;BME280;15295;42.658;23.374;2023-03-23T14:41:00;94538.69;;;22.45;29.39
27958;BME280;15295;42.658;23.374;2023-03-23T14:46:07;94509.34;;;22.11;29.60
27958;BME280;15295;42.658;23.374;2023-03-23T14:48:34;94485.75;;;21.74;29.38
27958;BME280;15295;42.658;23.374;2023-03-23T14:51:03;94501.66;;;21.74;29.57
27958;BME280;15295;42.658;23.374;2023-03-23T14:53:38;94530.97;;;21.93;29.56
27958;BME280;15295;42.658;23.374;2023-03-23T14:58:44;94513.38;;;21.78;29.89
27958;BME280;15295;42.658;23.374;2023-03-23T15:01:23;94481.44;;;21.64;29.91
27958;BME280;15295;42.658;23.374;2023-03-23T15:03:56;94512.19;;;21.70;30.27
27958;BME280;15295;42.658;23.374;2023-03-23T15:06:39;94525.63;;;21.71;30.35
27958;BME280;15295;42.658;23.374;2023-03-23T15:09:16;94512.25;;;21.51;30.80
27958;BME280;15295;42.658;23.374;2023-03-23T15:11:51;94509.47;;;21.51;30.70
27958;BME280;15295;42.658;23.374;2023-03-23T15:14:21;94522.16;;;21.43;31.28
27958;BME280;15295;42.658;23.374;2023-03-23T15:16:52;94530.81;;;21.45;31.24
27958;BME280;15295;42.658;23.374;2023-03-23T15:19:25;94512.59;;;21.44;32.04
27958;BME280;15295;42.658;23.374;2023-03-23T15:22:04;94511.63;;;21.57;32.18
27958;BME280;15295;42.658;23.374;2023-03-23T15:24:37;94515.84;;;21.43;31.68
27958;BME280;15295;42.658;23.374;2023-03-23T15:30:12;94515.72;;;21.28;32.14
27958;BME280;15295;42.658;23.374;2023-03-23T15:32:41;94517.44;;;21.26;31.96
27958;BME280;15295;42.658;23.374;2023-03-23T15:35:23;94522.25;;;21.25;32.40
27958;BME280;15295;42.658;23.374;2023-03-23T15:38:14;94455.03;;;20.67;32.30
27958;BME280;15295;42.658;23.374;2023-03-23T15:40:43;94486.78;;;20.75;32.13
27958;BME280;15295;42.658;23.374;2023-03-23T15:46:05;94526.75;;;21.05;32.34